»·PEaware :: 9K2JM CYFT-BGBW

9K2JM :: CYFT-BGBW

FLIGHT INFORMATION

Flight Status: Arrived
Operator: Unknown
More flights by this operator :: More flights under this callsign
Pilot: Jasem M. (4981)
Aircraft: CIRRUS SR-22
(SR22)
More flights by this aircraft type
Origin: CYFT Makkovik
Canada
Destination: BGBW Narsarsuaq
Greenland
More flights between these airports :: More routes between these airports
Route:
File this flight plan on PilotEdge
Remarks:
Altitude:
(Current/Filed)
15,000ft
Speed:
(Current/Filed)
180kts
Departed: 19-Apr-17 02:06 PM
Arrived: 19-Apr-17 02:57 PM
Distance/Time
Traveled:
567nm/0:51
Distance/Time
To Go:
Arrived

Flight Plot

Page will automatically refresh every two minutes.

Flight plan parsing failed; only flown route is shown


Map Options




Map Legend


Flown Route
Filed Route
Departure Airport
Arrival Airport
Navaid (VOR, NDB)
Fix

Horizontal Profiles

Position Reports

Time Latitude Longitude Heading Altitude Ground
Speed
19-Apr-17 14:07 60.473427 -50.554237 38 15003ft 216kts
19-Apr-17 14:08 60.516360 -50.469564 38 15004ft 216kts
19-Apr-17 14:09 60.546408 -50.368505 77 15006ft 223kts
19-Apr-17 14:10 60.561045 -50.247535 73 15001ft 223kts
19-Apr-17 14:11 60.578047 -50.127174 72 15001ft 222kts
19-Apr-17 14:12 60.595342 -50.006799 72 15002ft 223kts
19-Apr-17 14:13 60.612446 -49.887068 72 15002ft 223kts
19-Apr-17 14:14 60.629527 -49.766606 72 15003ft 223kts
19-Apr-17 14:15 60.646524 -49.645847 72 15009ft 223kts
19-Apr-17 14:16 60.663407 -49.525119 72 15050ft 222kts
19-Apr-17 14:17 60.680215 -49.404042 72 15085ft 222kts
19-Apr-17 14:18 60.696779 -49.283882 73 15082ft 223kts
19-Apr-17 14:19 60.713311 -49.162839 73 15082ft 223kts
19-Apr-17 14:20 60.729807 -49.041114 73 15083ft 225kts
19-Apr-17 14:21 60.746437 -48.917513 73 15084ft 227kts
19-Apr-17 14:22 60.762989 -48.793641 73 15084ft 227kts
19-Apr-17 14:23 60.779508 -48.668838 73 15085ft 228kts
19-Apr-17 14:24 60.795916 -48.543877 73 15085ft 228kts
19-Apr-17 14:25 60.812049 -48.420065 73 15086ft 228kts
19-Apr-17 14:26 60.827815 -48.298178 74 15082ft 228kts
19-Apr-17 14:27 60.843675 -48.174340 74 14999ft 229kts
19-Apr-17 14:28 60.859312 -48.051311 74 15000ft 228kts
19-Apr-17 14:29 60.874790 -47.928602 74 15000ft 227kts
19-Apr-17 14:30 60.890013 -47.806893 74 15001ft 227kts
19-Apr-17 14:31 60.905190 -47.684577 74 15002ft 228kts
19-Apr-17 14:32 60.920375 -47.561126 74 15002ft 228kts
19-Apr-17 14:33 60.935527 -47.436940 74 14883ft 233kts
19-Apr-17 14:34 60.950250 -47.315224 75 14442ft 239kts
19-Apr-17 14:35 60.965625 -47.186870 75 13957ft 239kts
19-Apr-17 14:36 60.980914 -47.058207 75 13471ft 237kts
19-Apr-17 14:37 60.995955 -46.930324 74 12989ft 237kts
19-Apr-17 14:38 61.011000 -46.801250 74 12388ft 242kts
19-Apr-17 14:39 61.026114 -46.671100 74 11726ft 242kts
19-Apr-17 14:40 61.041139 -46.540497 75 11061ft 239kts
19-Apr-17 14:41 61.055808 -46.411188 75 10400ft 236kts
19-Apr-17 14:42 61.069370 -46.290699 77 9768ft 232kts
19-Apr-17 14:43 61.083391 -46.164796 78 9088ft 228kts
19-Apr-17 14:44 61.096061 -46.050453 78 8383ft 194kts
19-Apr-17 14:45 61.106900 -45.951627 79 7618ft 187kts
19-Apr-17 14:46 61.117963 -45.849791 79 6730ft 183kts
19-Apr-17 14:47 61.128470 -45.752505 80 5795ft 168kts
19-Apr-17 14:48 61.137675 -45.662177 88 4777ft 159kts
19-Apr-17 14:49 61.130615 -45.578940 124 3830ft 142kts
19-Apr-17 14:50 61.105510 -45.523722 166 2964ft 127kts
19-Apr-17 14:51 61.096425 -45.567516 329 1907ft 140kts
19-Apr-17 14:52 61.122975 -45.523095 64 1095ft 116kts
19-Apr-17 14:53 61.135183 -45.474086 55 686ft 88kts
19-Apr-17 14:54 61.152765 -45.437237 58 210ft 104kts
19-Apr-17 14:55 61.165900 -45.378197 70 1033ft 127kts
19-Apr-17 14:56 61.189237 -45.329550 342 1303ft 133kts
19-Apr-17 14:57 61.186800 -45.379371 226 693ft 83kts
19-Apr-17 14:58 61.170807 -45.407745 218 105ft 69kts
19-Apr-17 14:59 61.163246 -45.418434 132 3ft 6kts
19-Apr-17 15:00 61.162905 -45.416248 141 3ft 6kts

Navigation Log

Ident Type
Flight plan parsing failed, navigation log unavailable